Time,TemperatureF,DewpointF,PressureIn,WindDirection,WindDirectionDegrees,WindSpeedMPH,WindSpeedGustMPH,Humidity,HourlyPrecipIn,Conditions,Clouds,dailyrainin,SolarRadiationWatts/m^2,SoftwareType,DateUTC
2013-02-11 00:01:00,21.8,19.8,29.52,North,360,3.5,3.5,92,0.00,-RA,,0.00,0.0,WeatherDisplay:10.37,2013-02-11 06:01:00,
2013-02-11 00:06:00,21.8,19.8,29.53,NW,323,4.0,4.0,92,0.00,-RA,,0.00,0.0,WeatherDisplay:10.37,2013-02-11 06:06:00,
2013-02-11 00:11:00,21.7,19.5,29.53,NNW,341,10.4,10.4,91,0.00,-RA,,0.00,0.0,WeatherDisplay:10.37,2013-02-11 06:11:00,
2013-02-11 00:16:00,21.6,19.4,29.53,North,360,4.6,4.6,91,0.00,-RA,,0.00,0.0,WeatherDisplay:10.37,2013-02-11 06:16:00,
2013-02-11 00:21:00,21.5,19.3,29.53,NW,318,3.5,3.5,91,0.00,-RA,,0.00,0.0,WeatherDisplay:10.37,2013-02-11 06:21:00,
2013-02-11 00:26:00,21.5,19.5,29.53,NW,322,3.0,3.0,92,0.00,-RA,,0.00,0.0,WeatherDisplay:10.37,2013-02-11 06:26:00,
2013-02-11 00:31:00,21.4,19.4,29.54,NNW,328,3.5,3.5,92,0.00,-RA,,0.00,0.0,WeatherDisplay:10.37,2013-02-11 06:31:00,
2013-02-11 00:36:00,21.4,19.4,29.54,North,350,3.5,3.5,92,0.00,-RA,,0.00,0.0,WeatherDisplay:10.37,2013-02-11 06:36:00,
2013-02-11 00:41:00,21.3,19.3,29.54,NNW,343,3.5,3.5,92,0.00,-RA,,0.00,0.0,WeatherDisplay:10.37,2013-02-11 06:41:00,
2013-02-11 00:46:00,21.2,19.2,29.54,NNW,348,3.5,3.5,92,0.00,-RA,,0.00,0.0,WeatherDisplay:10.37,2013-02-11 06:46:00,
2013-02-11 00:51:00,21.2,19.0,29.54,NNE,18,3.5,3.5,91,0.00,-RA,,0.00,0.0,WeatherDisplay:10.37,2013-02-11 06:51:00,
2013-02-11 00:56:00,21.2,19.0,29.54,North,360,8.1,8.1,91,0.00,-RA,,0.00,0.0,WeatherDisplay:10.37,2013-02-11 06:56:00,
2013-02-11 01:01:00,21.1,18.9,29.54,NNW,329,1.1,0.0,91,0.00,-RA,,0.00,0.0,WeatherDisplay:10.37,2013-02-11 07:01:00,
2013-02-11 01:06:00,21.1,18.9,29.54,NW,306,3.5,3.5,91,0.00,-RA,,0.00,0.0,WeatherDisplay:10.37,2013-02-11 07:06:00,
2013-02-11 01:11:00,21.0,18.8,29.54,West,281,2.3,2.4,91,0.00,-RA,,0.00,0.0,WeatherDisplay:10.37,2013-02-11 07:11:00,
2013-02-11 01:16:00,21.0,18.8,29.55,NNE,14,3.5,3.5,91,0.00,-RA,,0.00,0.0,WeatherDisplay:10.37,2013-02-11 07:16:00,
2013-02-11 01:21:00,20.9,18.7,29.55,NNW,331,1.1,1.1,91,0.00,-RA,,0.00,0.0,WeatherDisplay:10.37,2013-02-11 07:21:00,
2013-02-11 01:26:00,20.9,18.9,29.55,NW,321,9.2,9.2,92,0.00,-RA,,0.00,0.0,WeatherDisplay:10.37,2013-02-11 07:26:00,
2013-02-11 01:31:00,20.8,18.8,29.56,NNW,345,3.5,3.5,92,0.00,-RA,,0.00,0.0,WeatherDisplay:10.37,2013-02-11 07:31:00,
2013-02-11 01:36:00,20.8,18.8,29.56,North,355,3.0,3.0,92,0.00,-RA,,0.00,0.0,WeatherDisplay:10.37,2013-02-11 07:36:00,
2013-02-11 01:41:00,20.8,18.8,29.56,NNW,331,3.5,3.5,92,0.00,-RA,,0.00,0.0,WeatherDisplay:10.37,2013-02-11 07:41:00,
2013-02-11 01:46:00,20.7,18.7,29.56,ENE,61,7.0,7.0,92,0.00,-RA,,0.00,0.0,WeatherDisplay:10.37,2013-02-11 07:46:00,
2013-02-11 01:51:00,20.7,18.7,29.56,NNE,14,6.0,6.0,92,0.00,-RA,,0.00,0.0,WeatherDisplay:10.37,2013-02-11 07:51:00,
2013-02-11 01:56:00,20.7,18.7,29.56,North,360,5.8,5.8,92,0.00,-RA,,0.00,0.0,WeatherDisplay:10.37,2013-02-11 07:56:00,
2013-02-11 02:01:00,20.7,18.7,29.56,WNW,295,4.6,4.6,92,0.00,-RA,,0.00,0.0,WeatherDisplay:10.37,2013-02-11 08:01:00,
2013-02-11 02:06:00,20.6,18.6,29.56,NW,304,5.8,5.8,92,0.00,-RA,,0.00,0.0,WeatherDisplay:10.37,2013-02-11 08:06:00,
2013-02-11 02:11:00,20.5,18.3,29.57,NW,322,5.0,5.0,91,0.00,-RA,,0.00,0.0,WeatherDisplay:10.37,2013-02-11 08:11:00,
2013-02-11 02:16:00,20.5,18.3,29.57,NW,323,2.3,2.3,91,0.00,-RA,,0.00,0.0,WeatherDisplay:10.37,2013-02-11 08:16:00,
2013-02-11 02:21:00,20.4,18.2,29.57,NW,319,3.5,3.5,91,0.00,-RA,,0.00,0.0,WeatherDisplay:10.37,2013-02-11 08:21:00,
2013-02-11 02:26:00,20.4,18.2,29.57,NNW,346,9.2,9.2,91,0.00,-RA,,0.00,0.0,WeatherDisplay:10.37,2013-02-11 08:26:00,
2013-02-11 02:31:00,20.4,18.2,29.58,NNW,348,2.3,2.3,91,0.00,-RA,,0.00,0.0,WeatherDisplay:10.37,2013-02-11 08:31:00,
2013-02-11 02:36:00,20.3,18.1,29.58,WNW,291,5.8,5.8,91,0.00,-RA,,0.00,0.0,WeatherDisplay:10.37,2013-02-11 08:36:00,
2013-02-11 02:41:00,20.2,18.0,29.58,ESE,119,3.5,3.5,91,0.00,-RA,,0.00,0.0,WeatherDisplay:10.37,2013-02-11 08:41:00,
2013-02-11 02:46:00,20.2,18.0,29.58,North,355,3.5,3.5,91,0.00,-RA,,0.00,0.0,WeatherDisplay:10.37,2013-02-11 08:46:00,
2013-02-11 02:51:00,20.1,17.9,29.58,NW,307,2.3,2.3,91,0.00,-RA,,0.00,0.0,WeatherDisplay:10.37,2013-02-11 08:51:00,
2013-02-11 02:56:00,20.1,17.9,29.58,North,350,5.8,5.8,91,0.00,-RA,,0.00,0.0,WeatherDisplay:10.37,2013-02-11 08:56:00,
2013-02-11 03:01:00,20.0,17.8,29.58,North,9,4.6,4.6,91,0.00,-RA,,0.00,0.0,WeatherDisplay:10.37,2013-02-11 09:01:00,
2013-02-11 03:06:00,20.0,17.8,29.58,NNW,344,2.3,2.3,91,0.00,-RA,,0.00,0.0,WeatherDisplay:10.37,2013-02-11 09:06:00,
2013-02-11 03:11:00,19.9,17.7,29.58,North,355,4.6,4.6,91,0.00,-RA,,0.00,0.0,WeatherDisplay:10.37,2013-02-11 09:11:00,
2013-02-11 03:16:00,19.9,17.7,29.58,NNW,333,3.5,3.5,91,0.00,-RA,,0.00,0.0,WeatherDisplay:10.37,2013-02-11 09:16:00,
2013-02-11 03:21:00,19.8,17.6,29.58,NW,306,5.8,5.8,91,0.00,-RA,,0.00,0.0,WeatherDisplay:10.37,2013-02-11 09:21:00,
2013-02-11 03:26:00,19.7,17.5,29.59,NW,307,2.0,2.0,91,0.00,-RA,,0.00,0.0,WeatherDisplay:10.37,2013-02-11 09:26:00,
2013-02-11 03:31:00,19.7,17.5,29.59,NW,315,4.0,4.0,91,0.00,-RA,,0.00,0.0,WeatherDisplay:10.37,2013-02-11 09:31:00,
2013-02-11 03:36:00,19.7,17.5,29.59,NNW,340,4.6,4.6,91,0.00,-RA,,0.00,0.0,WeatherDisplay:10.37,2013-02-11 09:36:00,
2013-02-11 03:41:00,19.7,17.5,29.59,NW,319,3.5,3.5,91,0.00,-RA,,0.00,0.0,WeatherDisplay:10.37,2013-02-11 09:41:00,
2013-02-11 03:46:00,19.7,17.5,29.59,NNE,22,5.0,5.0,91,0.00,-RA,,0.00,0.0,WeatherDisplay:10.37,2013-02-11 09:46:00,
2013-02-11 03:51:00,19.7,17.5,29.60,NNW,340,5.8,5.8,91,0.00,-RA,,0.00,0.0,WeatherDisplay:10.37,2013-02-11 09:51:00,
2013-02-11 03:56:00,19.6,17.4,29.60,WNW,301,6.9,6.9,91,0.00,-RA,,0.00,0.0,WeatherDisplay:10.37,2013-02-11 09:56:00,
2013-02-11 04:01:00,19.6,17.4,29.60,NNW,341,4.0,4.0,91,0.00,-RA,,0.00,0.0,WeatherDisplay:10.37,2013-02-11 10:01:00,
2013-02-11 04:06:00,19.5,17.3,29.61,NW,316,3.5,3.5,91,0.00,-RA,,0.00,0.0,WeatherDisplay:10.37,2013-02-11 10:06:00,
2013-02-11 04:11:00,19.4,17.2,29.61,NW,304,6.9,6.9,91,0.00,-RA,,0.00,0.0,WeatherDisplay:10.37,2013-02-11 10:11:00,
2013-02-11 04:16:00,19.4,19.4,29.61,WNW,291,3.5,3.5,100,0.00,-RA,,0.00,0.0,WeatherDisplay:10.37,2013-02-11 10:16:00,
2013-02-11 04:21:00,19.4,17.2,29.61,WNW,291,4.6,4.6,91,0.00,-RA,,0.00,0.0,WeatherDisplay:10.37,2013-02-11 10:21:00,
2013-02-11 04:26:00,19.3,17.1,29.62,WNW,295,5.8,5.8,91,0.00,-RA,,0.00,0.0,WeatherDisplay:10.37,2013-02-11 10:26:00,
2013-02-11 04:31:00,19.3,17.1,29.62,North,355,9.2,9.2,91,0.00,-RA,,0.00,0.0,WeatherDisplay:10.37,2013-02-11 10:31:00,
2013-02-11 04:36:00,19.3,17.1,29.62,NW,324,3.5,3.5,91,0.00,-RA,,0.00,0.0,WeatherDisplay:10.37,2013-02-11 10:36:00,
2013-02-11 04:41:00,19.2,17.0,29.62,WNW,287,9.2,9.2,91,0.00,-RA,,0.00,0.0,WeatherDisplay:10.37,2013-02-11 10:41:00,
2013-02-11 04:46:00,19.2,17.0,29.62,WNW,286,6.9,6.9,91,0.00,-RA,,0.00,0.0,WeatherDisplay:10.37,2013-02-11 10:46:00,
2013-02-11 04:51:00,19.2,17.0,29.63,WNW,290,4.6,4.6,91,0.00,-RA,,0.00,0.0,WeatherDisplay:10.37,2013-02-11 10:51:00,
2013-02-11 04:56:00,19.2,17.0,29.63,NW,323,7.0,7.0,91,0.00,-RA,,0.00,0.0,WeatherDisplay:10.37,2013-02-11 10:56:00,
2013-02-11 05:01:00,19.1,16.9,29.63,NNW,331,3.5,3.5,91,0.00,-RA,,0.00,0.0,WeatherDisplay:10.37,2013-02-11 11:01:00,
2013-02-11 05:06:00,19.1,16.9,29.64,NW,316,4.0,4.0,91,0.00,-RA,,0.00,0.0,WeatherDisplay:10.37,2013-02-11 11:06:00,
2013-02-11 05:11:00,19.1,16.9,29.64,North,349,2.3,2.3,91,0.00,-RA,,0.00,0.0,WeatherDisplay:10.37,2013-02-11 11:11:00,
2013-02-11 05:16:00,19.0,16.8,29.64,NNW,335,3.5,3.5,91,0.00,-RA,,0.00,0.0,WeatherDisplay:10.37,2013-02-11 11:16:00,
2013-02-11 05:21:00,19.0,16.8,29.64,WNW,296,9.2,9.2,91,0.00,-RA,,0.00,0.0,WeatherDisplay:10.37,2013-02-11 11:21:00,
2013-02-11 05:27:00,19.0,16.8,29.64,NW,319,6.9,6.9,91,0.00,-RA,,0.00,0.0,WeatherDisplay:10.37,2013-02-11 11:27:00,
2013-02-11 05:32:00,19.0,16.8,29.64,North,5,3.5,3.5,91,0.00,-RA,,0.00,0.0,WeatherDisplay:10.37,2013-02-11 11:32:00,
2013-02-11 05:37:00,18.9,16.7,29.65,NW,317,6.9,6.9,91,0.00,-RA,,0.00,0.0,WeatherDisplay:10.37,2013-02-11 11:37:00,
2013-02-11 05:42:00,18.9,16.7,29.65,NW,318,5.8,5.8,91,0.00,-RA,,0.00,0.0,WeatherDisplay:10.37,2013-02-11 11:42:00,
2013-02-11 05:47:00,18.9,16.7,29.65,NNW,340,4.0,4.0,91,0.00,-RA,,0.00,0.0,WeatherDisplay:10.37,2013-02-11 11:47:00,
2013-02-11 05:52:00,18.8,16.6,29.65,NNW,346,5.0,5.0,91,0.00,-RA,,0.00,0.0,WeatherDisplay:10.37,2013-02-11 11:52:00,
2013-02-11 05:57:00,18.8,16.6,29.66,WNW,292,8.1,8.1,91,0.00,-RA,,0.00,0.0,WeatherDisplay:10.37,2013-02-11 11:57:00,
2013-02-11 06:02:00,18.8,16.6,29.66,NW,314,4.6,4.6,91,0.00,-RA,,0.00,0.0,WeatherDisplay:10.37,2013-02-11 12:02:00,
2013-02-11 06:07:00,18.8,16.6,29.66,NW,319,4.0,4.0,91,0.00,-RA,,0.00,0.0,WeatherDisplay:10.37,2013-02-11 12:07:00,
2013-02-11 06:12:00,18.7,16.5,29.66,WNW,297,6.9,6.9,91,0.00,-RA,,0.00,0.0,WeatherDisplay:10.37,2013-02-11 12:12:00,
2013-02-11 06:17:00,18.7,16.5,29.66,WNW,287,4.6,4.6,91,0.00,-RA,,0.00,0.0,WeatherDisplay:10.37,2013-02-11 12:17:00,
2013-02-11 06:22:00,18.7,16.5,29.67,WNW,292,4.6,4.6,91,0.00,-RA,,0.00,0.0,WeatherDisplay:10.37,2013-02-11 12:22:00,
2013-02-11 06:27:00,18.7,16.5,29.67,WNW,291,6.9,6.9,91,0.00,-RA,,0.00,0.0,WeatherDisplay:10.37,2013-02-11 12:27:00,
2013-02-11 06:32:00,18.6,16.4,29.67,NW,311,3.5,3.5,91,0.00,-RA,,0.00,0.0,WeatherDisplay:10.37,2013-02-11 12:32:00,
2013-02-11 06:37:00,18.6,16.4,29.67,WNW,303,6.9,6.9,91,0.00,-RA,,0.00,0.0,WeatherDisplay:10.37,2013-02-11 12:37:00,
2013-02-11 06:42:00,18.6,16.4,29.68,WNW,300,2.3,2.3,91,0.00,-RA,,0.00,0.0,WeatherDisplay:10.37,2013-02-11 12:42:00,
2013-02-11 06:47:00,18.6,16.4,29.68,NNW,335,3.5,3.5,91,0.00,-RA,,0.00,0.0,WeatherDisplay:10.37,2013-02-11 12:47:00,
2013-02-11 06:52:00,18.5,16.3,29.68,NW,310,8.1,8.1,91,0.00,-RA,,0.00,0.0,WeatherDisplay:10.37,2013-02-11 12:52:00,
2013-02-11 06:57:00,18.5,16.3,29.68,NNW,329,4.0,4.0,91,0.00,-RA,,0.00,0.0,WeatherDisplay:10.37,2013-02-11 12:57:00,
2013-02-11 07:02:00,18.5,16.3,29.68,NW,322,3.5,3.5,91,0.00,-RA,,0.00,0.0,WeatherDisplay:10.37,2013-02-11 13:02:00,
2013-02-11 07:07:00,18.5,16.3,29.68,NW,319,3.5,3.5,91,0.00,-RA,,0.00,0.0,WeatherDisplay:10.37,2013-02-11 13:07:00,
2013-02-11 07:12:00,18.4,16.0,29.68,NNW,331,3.5,3.5,90,0.00,-RA,,0.00,0.0,WeatherDisplay:10.37,2013-02-11 13:12:00,
2013-02-11 07:17:00,18.4,16.2,29.69,NW,311,3.5,3.5,91,0.00,-RA,,0.00,0.0,WeatherDisplay:10.37,2013-02-11 13:17:00,
2013-02-11 07:22:00,18.4,16.2,29.69,NNW,330,4.0,4.0,91,0.00,-RA,,0.00,0.0,WeatherDisplay:10.37,2013-02-11 13:22:00,
2013-02-11 07:27:00,18.4,16.2,29.70,NW,312,2.3,2.3,91,0.00,-RA,,0.00,0.0,WeatherDisplay:10.37,2013-02-11 13:27:00,
2013-02-11 07:32:00,18.4,16.2,29.70,NNW,330,3.5,3.5,91,0.00,-RA,,0.00,0.0,WeatherDisplay:10.37,2013-02-11 13:32:00,
2013-02-11 07:37:00,18.3,16.1,29.70,North,360,3.5,3.5,91,0.00,-RA,,0.00,0.0,WeatherDisplay:10.37,2013-02-11 13:37:00,
2013-02-11 07:42:00,18.3,16.1,29.70,West,271,3.5,3.5,91,0.00,-RA,,0.00,0.0,WeatherDisplay:10.37,2013-02-11 13:42:00,
2013-02-11 07:47:00,18.3,16.1,29.70,NW,320,5.8,5.8,91,0.00,-RA,,0.00,0.0,WeatherDisplay:10.37,2013-02-11 13:47:00,
2013-02-11 07:52:00,18.3,16.1,29.70,NW,306,3.5,3.5,91,0.00,-RA,,0.00,0.0,WeatherDisplay:10.37,2013-02-11 13:52:00,
2013-02-11 07:57:00,18.3,16.1,29.70,NW,311,5.8,5.8,91,0.00,-RA,,0.00,5.0,WeatherDisplay:10.37,2013-02-11 13:57:00,
2013-02-11 08:02:00,18.3,16.1,29.71,WNW,300,3.5,3.5,91,0.00,-RA,,0.00,7.0,WeatherDisplay:10.37,2013-02-11 14:02:00,
2013-02-11 08:07:00,18.4,16.2,29.71,NW,310,6.9,6.9,91,0.00,-RA,,0.00,7.0,WeatherDisplay:10.37,2013-02-11 14:07:00,
2013-02-11 08:12:00,18.4,16.2,29.71,NW,313,4.6,4.6,91,0.00,-RA,,0.00,9.0,WeatherDisplay:10.37,2013-02-11 14:12:00,
2013-02-11 08:17:00,18.4,16.2,29.71,NNW,344,4.0,4.0,91,0.00,-RA,,0.00,9.0,WeatherDisplay:10.37,2013-02-11 14:17:00,
2013-02-11 08:22:00,18.5,16.3,29.71,NW,312,5.8,5.8,91,0.00,-RA,,0.00,11.0,WeatherDisplay:10.37,2013-02-11 14:22:00,
2013-02-11 08:27:00,18.5,16.3,29.72,North,355,4.6,4.6,91,0.00,-RA,,0.00,11.0,WeatherDisplay:10.37,2013-02-11 14:27:00,
2013-02-11 08:32:00,18.5,16.3,29.72,NW,308,2.0,2.0,91,0.00,-RA,,0.00,14.0,WeatherDisplay:10.37,2013-02-11 14:32:00,
2013-02-11 08:37:00,18.5,16.3,29.72,NW,321,3.5,3.5,91,0.00,-RA,,0.00,16.0,WeatherDisplay:10.37,2013-02-11 14:37:00,
2013-02-11 08:42:00,18.6,16.4,29.72,NW,319,3.5,3.5,91,0.00,-RA,,0.00,18.0,WeatherDisplay:10.37,2013-02-11 14:42:00,
2013-02-11 08:47:00,18.7,16.5,29.72,NW,315,4.6,4.6,91,0.00,-RA,,0.00,18.0,WeatherDisplay:10.37,2013-02-11 14:47:00,
2013-02-11 08:52:00,18.7,16.3,29.73,NNW,340,5.8,5.8,90,0.00,-RA,,0.00,18.0,WeatherDisplay:10.37,2013-02-11 14:52:00,
2013-02-11 08:57:00,18.8,16.6,29.73,NW,314,3.5,3.5,91,0.00,-RA,,0.00,19.0,WeatherDisplay:10.37,2013-02-11 14:57:00,
2013-02-11 09:02:00,18.8,16.6,29.73,WNW,290,9.2,9.2,91,0.00,-RA,,0.00,21.0,WeatherDisplay:10.37,2013-02-11 15:02:00,
2013-02-11 09:07:00,18.9,16.5,29.73,NNW,340,6.9,6.9,90,0.00,-RA,,0.00,23.0,WeatherDisplay:10.37,2013-02-11 15:07:00,
2013-02-11 09:12:00,18.9,16.5,29.73,North,360,3.5,3.5,90,0.00,-RA,,0.00,25.0,WeatherDisplay:10.37,2013-02-11 15:12:00,
2013-02-11 09:17:00,19.0,16.6,29.73,NW,305,5.8,5.8,90,0.00,-RA,,0.00,23.0,WeatherDisplay:10.37,2013-02-11 15:17:00,
2013-02-11 09:22:00,19.1,16.7,29.74,NW,323,4.6,4.6,90,0.00,-RA,,0.00,21.0,WeatherDisplay:10.37,2013-02-11 15:22:00,
2013-02-11 09:27:00,19.1,16.7,29.74,WNW,294,5.8,5.8,90,0.00,-RA,,0.00,19.0,WeatherDisplay:10.37,2013-02-11 15:27:00,
2013-02-11 09:32:00,19.1,16.7,29.74,NW,321,8.1,8.1,90,0.00,-RA,,0.00,28.0,WeatherDisplay:10.37,2013-02-11 15:32:00,
2013-02-11 09:37:00,19.2,16.7,29.74,NNW,333,6.0,6.0,90,0.00,-RA,,0.00,30.0,WeatherDisplay:10.37,2013-02-11 15:37:00,
2013-02-11 09:42:00,19.2,16.7,29.74,North,360,4.6,4.6,90,0.00,-RA,,0.00,30.0,WeatherDisplay:10.37,2013-02-11 15:42:00,
2013-02-11 09:47:00,19.3,16.8,29.74,North,355,5.8,5.8,90,0.00,-RA,,0.00,32.0,WeatherDisplay:10.37,2013-02-11 15:47:00,
2013-02-11 09:52:00,19.4,16.9,29.75,WNW,302,7.0,7.0,90,0.00,-RA,,0.00,33.0,WeatherDisplay:10.37,2013-02-11 15:52:00,
2013-02-11 09:58:00,19.5,17.0,29.75,NW,325,3.5,3.5,90,0.00,-RA,,0.00,35.0,WeatherDisplay:10.37,2013-02-11 15:58:00,
2013-02-11 10:03:00,19.6,17.1,29.75,NW,318,9.0,9.0,90,0.00,-RA,,0.00,35.0,WeatherDisplay:10.37,2013-02-11 16:03:00,
2013-02-11 10:08:00,19.7,17.2,29.75,NW,319,4.0,4.0,90,0.00,-RA,,0.00,39.0,WeatherDisplay:10.37,2013-02-11 16:08:00,
2013-02-11 10:13:00,19.7,17.0,29.75,NW,313,11.5,11.5,89,0.00,-RA,,0.00,39.0,WeatherDisplay:10.37,2013-02-11 16:13:00,
2013-02-11 10:18:00,19.7,17.0,29.76,WNW,302,5.8,5.8,89,0.00,-RA,,0.00,39.0,WeatherDisplay:10.37,2013-02-11 16:18:00,
2013-02-11 10:23:00,19.7,17.0,29.76,NNW,340,6.9,6.9,89,0.00,-RA,,0.00,40.0,WeatherDisplay:10.37,2013-02-11 16:23:00,
2013-02-11 10:28:00,19.8,17.1,29.76,NW,307,3.5,3.5,89,0.00,-RA,,0.00,44.0,WeatherDisplay:10.37,2013-02-11 16:28:00,
2013-02-11 10:33:00,19.8,17.1,29.77,WNW,284,8.1,8.1,89,0.00,-RA,,0.00,47.0,WeatherDisplay:10.37,2013-02-11 16:33:00,
2013-02-11 10:38:00,19.7,16.7,29.77,NNW,331,4.6,4.6,88,0.00,-RA,,0.00,54.0,WeatherDisplay:10.37,2013-02-11 16:38:00,
2013-02-11 10:43:00,19.7,16.7,29.77,NW,315,4.6,4.6,88,0.00,-RA,,0.00,60.0,WeatherDisplay:10.37,2013-02-11 16:43:00,
2013-02-11 10:48:00,19.9,16.9,29.77,North,355,7.0,7.0,88,0.00,-RA,,0.00,63.0,WeatherDisplay:10.37,2013-02-11 16:48:00,
2013-02-11 10:53:00,19.9,16.9,29.78,NW,323,3.0,3.0,88,0.00,-RA,,0.00,58.0,WeatherDisplay:10.37,2013-02-11 16:53:00,
2013-02-11 10:58:00,20.1,17.1,29.78,NNW,329,9.2,9.2,88,0.00,-RA,,0.00,44.0,WeatherDisplay:10.37,2013-02-11 16:58:00,
2013-02-11 11:03:00,20.0,17.0,29.78,NW,323,5.0,5.0,88,0.00,-RA,,0.00,39.0,WeatherDisplay:10.37,2013-02-11 17:03:00,
2013-02-11 11:08:00,19.9,16.7,29.78,NW,322,6.9,6.9,87,0.00,-RA,,0.00,37.0,WeatherDisplay:10.37,2013-02-11 17:08:00,
2013-02-11 11:13:00,19.8,16.6,29.79,NNW,340,3.5,3.5,87,0.00,-RA,,0.00,32.0,WeatherDisplay:10.37,2013-02-11 17:13:00,
2013-02-11 11:18:00,19.7,16.5,29.79,WNW,299,3.0,3.0,87,0.00,-RA,,0.00,49.0,WeatherDisplay:10.37,2013-02-11 17:18:00,
2013-02-11 11:23:00,19.7,16.5,29.79,WSW,252,9.2,9.2,87,0.00,-RA,,0.00,53.0,WeatherDisplay:10.37,2013-02-11 17:23:00,
2013-02-11 11:28:00,19.7,16.5,29.79,NW,318,6.9,6.9,87,0.00,-RA,,0.00,56.0,WeatherDisplay:10.37,2013-02-11 17:28:00,
2013-02-11 11:33:00,19.7,16.5,29.80,WNW,290,4.6,4.6,87,0.00,-RA,,0.00,60.0,WeatherDisplay:10.37,2013-02-11 17:33:00,
2013-02-11 11:38:00,19.7,16.7,29.80,NW,315,8.1,8.1,88,0.00,-RA,,0.00,62.0,WeatherDisplay:10.37,2013-02-11 17:38:00,
2013-02-11 11:43:00,19.7,16.7,29.80,NW,304,3.5,3.5,88,0.00,-RA,,0.00,67.0,WeatherDisplay:10.37,2013-02-11 17:43:00,
2013-02-11 11:48:00,19.7,16.7,29.80,NW,322,3.5,3.5,88,0.00,-RA,,0.00,63.0,WeatherDisplay:10.37,2013-02-11 17:48:00,
2013-02-11 11:53:00,19.8,16.8,29.80,WNW,287,6.9,6.9,88,0.00,-RA,,0.00,60.0,WeatherDisplay:10.37,2013-02-11 17:53:00,
2013-02-11 11:58:00,20.0,17.0,29.80,West,279,3.5,3.5,88,0.00,-RA,,0.00,54.0,WeatherDisplay:10.37,2013-02-11 17:58:00,
2013-02-11 12:03:00,19.9,16.7,29.80,WNW,303,5.8,5.8,87,0.00,-RA,,0.00,51.0,WeatherDisplay:10.37,2013-02-11 18:03:00,
2013-02-11 12:08:00,19.9,16.7,29.80,WNW,302,2.3,2.3,87,0.00,-RA,,0.00,56.0,WeatherDisplay:10.37,2013-02-11 18:08:00,
2013-02-11 12:13:00,19.8,16.6,29.80,NNW,329,4.6,4.6,87,0.00,-RA,,0.00,58.0,WeatherDisplay:10.37,2013-02-11 18:13:00,
2013-02-11 12:18:00,19.8,16.6,29.80,NNW,329,3.5,3.5,87,0.00,-RA,,0.00,63.0,WeatherDisplay:10.37,2013-02-11 18:18:00,
2013-02-11 12:23:00,19.8,16.6,29.80,WNW,290,3.5,3.5,87,0.00,-RA,,0.00,65.0,WeatherDisplay:10.37,2013-02-11 18:23:00,
2013-02-11 12:28:00,20.0,16.8,29.81,WNW,301,4.6,4.6,87,0.00,-RA,,0.00,63.0,WeatherDisplay:10.37,2013-02-11 18:28:00,
2013-02-11 12:33:00,20.2,17.0,29.81,West,266,3.5,3.5,87,0.00,-RA,,0.00,56.0,WeatherDisplay:10.37,2013-02-11 18:33:00,
2013-02-11 12:38:00,20.2,16.7,29.81,WNW,299,5.0,5.0,86,0.00,-RA,,0.00,62.0,WeatherDisplay:10.37,2013-02-11 18:38:00,
2013-02-11 12:43:00,20.2,16.7,29.80,North,350,5.8,5.8,86,0.00,-RA,,0.00,67.0,WeatherDisplay:10.37,2013-02-11 18:43:00,
2013-02-11 12:48:00,20.2,16.7,29.81,WNW,290,4.6,4.6,86,0.00,-RA,,0.00,65.0,WeatherDisplay:10.37,2013-02-11 18:48:00,
2013-02-11 12:53:00,20.1,16.6,29.81,North,355,5.8,5.8,86,0.00,-RA,,0.00,72.0,WeatherDisplay:10.37,2013-02-11 18:53:00,
2013-02-11 12:58:00,20.0,16.2,29.81,West,277,3.5,3.5,85,0.00,-RA,,0.00,70.0,WeatherDisplay:10.37,2013-02-11 18:58:00,
2013-02-11 13:03:00,20.1,16.6,29.81,WNW,290,4.6,4.6,86,0.00,-RA,,0.00,63.0,WeatherDisplay:10.37,2013-02-11 19:03:00,
2013-02-11 13:08:00,20.2,16.7,29.81,NW,323,3.5,3.5,86,0.00,-RA,,0.00,70.0,WeatherDisplay:10.37,2013-02-11 19:08:00,
2013-02-11 13:13:00,20.2,16.4,29.81,WSW,257,7.0,7.0,85,0.00,-RA,,0.00,67.0,WeatherDisplay:10.37,2013-02-11 19:13:00,
2013-02-11 13:18:00,20.0,16.2,29.81,WNW,294,3.5,3.5,85,0.00,-RA,,0.00,63.0,WeatherDisplay:10.37,2013-02-11 19:18:00,
2013-02-11 13:23:00,20.0,16.2,29.81,WNW,301,2.3,2.3,85,0.00,-RA,,0.00,70.0,WeatherDisplay:10.37,2013-02-11 19:23:00,
2013-02-11 13:28:00,19.9,16.1,29.81,West,279,3.5,3.5,85,0.00,-RA,,0.00,86.0,WeatherDisplay:10.37,2013-02-11 19:28:00,
2013-02-11 13:33:00,20.0,16.5,29.82,NW,304,2.3,0.0,86,0.00,-RA,,0.00,93.0,WeatherDisplay:10.37,2013-02-11 19:33:00,
2013-02-11 13:38:00,20.3,16.8,29.82,NNW,338,3.5,3.5,86,0.00,-RA,,0.00,91.0,WeatherDisplay:10.37,2013-02-11 19:38:00,
2013-02-11 13:44:00,20.7,16.9,29.82,West,276,6.9,6.9,85,0.00,-RA,,0.00,90.0,WeatherDisplay:10.37,2013-02-11 19:44:00,
2013-02-11 13:49:00,21.0,17.2,29.82,WNW,286,4.6,4.6,85,0.00,-RA,,0.00,79.0,WeatherDisplay:10.37,2013-02-11 19:49:00,
2013-02-11 13:54:00,21.0,17.2,29.82,NNW,333,4.6,4.6,85,0.00,-RA,,0.00,76.0,WeatherDisplay:10.37,2013-02-11 19:54:00,
2013-02-11 13:59:00,21.1,17.3,29.82,NW,316,5.8,5.8,85,0.00,-RA,,0.00,76.0,WeatherDisplay:10.37,2013-02-11 19:59:00,
2013-02-11 14:04:00,21.1,17.3,29.82,NW,316,3.5,3.5,85,0.00,-RA,,0.00,76.0,WeatherDisplay:10.37,2013-02-11 20:04:00,
2013-02-11 14:09:00,21.2,17.1,29.82,WNW,298,3.5,3.5,84,0.00,-RA,,0.00,77.0,WeatherDisplay:10.37,2013-02-11 20:09:00,
2013-02-11 14:14:00,21.3,17.2,29.83,West,275,3.5,3.5,84,0.00,-RA,,0.00,76.0,WeatherDisplay:10.37,2013-02-11 20:14:00,
2013-02-11 14:19:00,21.5,17.4,29.83,WSW,245,3.5,3.5,84,0.00,-RA,,0.00,84.0,WeatherDisplay:10.37,2013-02-11 20:19:00,
2013-02-11 14:24:00,21.4,17.0,29.83,WNW,302,4.6,4.6,83,0.00,-RA,,0.00,79.0,WeatherDisplay:10.37,2013-02-11 20:24:00,
2013-02-11 14:29:00,21.5,17.4,29.83,WNW,302,1.1,1.1,84,0.00,-RA,,0.00,86.0,WeatherDisplay:10.37,2013-02-11 20:29:00,
2013-02-11 14:34:00,21.6,17.5,29.83,WNW,283,3.5,3.5,84,0.00,-RA,,0.00,86.0,WeatherDisplay:10.37,2013-02-11 20:34:00,
2013-02-11 14:39:00,21.5,17.1,29.83,West,279,3.5,3.5,83,0.00,-RA,,0.00,83.0,WeatherDisplay:10.37,2013-02-11 20:39:00,
2013-02-11 14:44:00,21.4,17.0,29.83,NW,320,4.6,4.6,83,0.00,-RA,,0.00,74.0,WeatherDisplay:10.37,2013-02-11 20:44:00,
2013-02-11 14:49:00,21.5,17.1,29.83,West,281,4.6,4.6,83,0.00,-RA,,0.00,76.0,WeatherDisplay:10.37,2013-02-11 20:49:00,
2013-02-11 14:54:00,21.3,16.9,29.83,West,261,4.6,4.6,83,0.00,-RA,,0.00,60.0,WeatherDisplay:10.37,2013-02-11 20:54:00,
2013-02-11 14:59:00,20.9,16.3,29.84,WNW,298,5.8,5.8,82,0.00,-RA,,0.00,56.0,WeatherDisplay:10.37,2013-02-11 20:59:00,
2013-02-11 15:04:00,20.4,15.8,29.83,WSW,250,6.9,6.9,82,0.00,-RA,,0.00,62.0,WeatherDisplay:10.37,2013-02-11 21:04:00,
2013-02-11 15:09:00,20.0,15.4,29.84,WSW,258,4.6,4.6,82,0.00,-RA,,0.00,62.0,WeatherDisplay:10.37,2013-02-11 21:09:00,
2013-02-11 15:14:00,19.7,15.1,29.84,WSW,253,6.0,6.0,82,0.00,-RA,,0.00,56.0,WeatherDisplay:10.37,2013-02-11 21:14:00,
2013-02-11 15:19:00,19.4,14.8,29.84,West,263,6.9,6.9,82,0.00,-RA,,0.00,58.0,WeatherDisplay:10.37,2013-02-11 21:19:00,
2013-02-11 15:24:00,19.2,14.9,29.84,West,259,3.5,3.5,83,0.00,-RA,,0.00,56.0,WeatherDisplay:10.37,2013-02-11 21:24:00,
2013-02-11 15:29:00,19.0,14.7,29.84,West,269,3.5,3.5,83,0.00,-RA,,0.00,56.0,WeatherDisplay:10.37,2013-02-11 21:29:00,
2013-02-11 15:34:00,19.0,15.0,29.85,WNW,288,2.3,2.3,84,0.00,-RA,,0.00,56.0,WeatherDisplay:10.37,2013-02-11 21:34:00,
2013-02-11 15:39:00,19.0,15.0,29.85,NW,313,5.0,5.0,84,0.00,-RA,,0.00,49.0,WeatherDisplay:10.37,2013-02-11 21:39:00,
2013-02-11 15:44:00,18.9,14.9,29.85,West,260,6.9,6.9,84,0.00,-RA,,0.00,42.0,WeatherDisplay:10.37,2013-02-11 21:44:00,
2013-02-11 15:49:00,18.9,14.9,29.85,West,261,5.0,5.0,84,0.00,-RA,,0.00,35.0,WeatherDisplay:10.37,2013-02-11 21:49:00,
2013-02-11 15:54:00,18.8,14.8,29.85,West,274,4.6,4.6,84,0.00,-RA,,0.00,33.0,WeatherDisplay:10.37,2013-02-11 21:54:00,
2013-02-11 15:59:00,18.7,14.7,29.85,West,279,8.1,8.1,84,0.00,-RA,,0.00,35.0,WeatherDisplay:10.37,2013-02-11 21:59:00,
2013-02-11 16:04:00,18.6,14.6,29.85,WSW,249,6.9,6.9,84,0.00,-RA,,0.00,33.0,WeatherDisplay:10.37,2013-02-11 22:04:00,
2013-02-11 16:09:00,18.4,14.4,29.85,West,279,3.5,3.5,84,0.00,-RA,,0.00,32.0,WeatherDisplay:10.37,2013-02-11 22:09:00,
2013-02-11 16:14:00,18.2,14.2,29.86,WNW,286,5.8,5.8,84,0.00,-RA,,0.00,32.0,WeatherDisplay:10.37,2013-02-11 22:14:00,
2013-02-11 16:19:00,18.1,14.1,29.86,West,269,3.5,3.5,84,0.00,-RA,,0.00,32.0,WeatherDisplay:10.37,2013-02-11 22:19:00,
2013-02-11 16:24:00,18.0,14.3,29.86,WNW,286,2.3,0.0,85,0.00,-RA,,0.00,33.0,WeatherDisplay:10.37,2013-02-11 22:24:00,
2013-02-11 16:29:00,18.0,14.3,29.86,West,271,4.0,4.0,85,0.00,-RA,,0.00,67.0,WeatherDisplay:10.37,2013-02-11 22:29:00,
2013-02-11 16:34:00,18.1,14.4,29.86,WNW,284,4.0,4.0,85,0.00,-RA,,0.00,70.0,WeatherDisplay:10.37,2013-02-11 22:34:00,
2013-02-11 16:39:00,18.2,14.4,29.86,West,267,5.8,5.8,85,0.00,-RA,,0.00,84.0,WeatherDisplay:10.37,2013-02-11 22:39:00,
2013-02-11 16:44:00,18.3,14.5,29.86,West,275,2.0,2.0,85,0.00,-RA,,0.00,60.0,WeatherDisplay:10.37,2013-02-11 22:44:00,
2013-02-11 16:49:00,18.4,14.6,29.86,West,269,3.0,0.0,85,0.00,-RA,,0.00,135.0,WeatherDisplay:10.37,2013-02-11 22:49:00,
2013-02-11 16:54:00,18.5,14.7,29.86,West,265,3.5,3.5,85,0.00,-RA,,0.00,118.0,WeatherDisplay:10.37,2013-02-11 22:54:00,
2013-02-11 16:59:00,18.4,14.4,29.86,WSW,257,5.8,5.8,84,0.00,-RA,,0.00,98.0,WeatherDisplay:10.37,2013-02-11 22:59:00,
2013-02-11 17:04:00,18.3,14.3,29.86,West,262,1.1,1.2,84,0.00,-RA,,0.00,98.0,WeatherDisplay:10.37,2013-02-11 23:04:00,
2013-02-11 17:09:00,18.2,13.9,29.86,West,271,2.3,2.3,83,0.00,-RA,,0.00,65.0,WeatherDisplay:10.37,2013-02-11 23:09:00,
2013-02-11 17:14:00,17.9,13.6,29.86,West,265,4.0,4.0,83,0.00,-RA,,0.00,28.0,WeatherDisplay:10.37,2013-02-11 23:14:00,
2013-02-11 17:19:00,17.5,12.9,29.87,West,265,3.5,0.0,82,0.00,-RA,,0.00,16.0,WeatherDisplay:10.37,2013-02-11 23:19:00,
2013-02-11 17:24:00,17.3,12.7,29.87,West,261,4.0,4.0,82,0.00,-RA,,0.00,9.0,WeatherDisplay:10.37,2013-02-11 23:24:00,
2013-02-11 17:29:00,16.9,12.4,29.87,West,259,3.5,3.5,82,0.00,-RA,,0.00,7.0,WeatherDisplay:10.37,2013-02-11 23:29:00,
2013-02-11 17:34:00,16.4,11.9,29.87,West,265,3.5,0.0,82,0.00,-RA,,0.00,5.0,WeatherDisplay:10.37,2013-02-11 23:34:00,
2013-02-11 17:39:00,16.0,11.5,29.87,West,267,2.0,2.0,82,0.00,-RA,,0.00,0.0,WeatherDisplay:10.37,2013-02-11 23:39:00,
2013-02-11 17:44:00,15.6,11.1,29.87,West,268,2.0,2.0,82,0.00,-RA,,0.00,0.0,WeatherDisplay:10.37,2013-02-11 23:44:00,
2013-02-11 17:49:00,15.2,10.7,29.88,West,268,0.0,0.1,82,0.00,-RA,,0.00,0.0,WeatherDisplay:10.37,2013-02-11 23:49:00,
2013-02-11 17:54:00,14.9,10.4,29.88,West,269,0.0,0.0,82,0.00,-RA,,0.00,0.0,WeatherDisplay:10.37,2013-02-11 23:54:00,
2013-02-11 17:59:00,14.6,10.1,29.88,West,268,0.0,0.0,82,0.00,-RA,,0.00,0.0,WeatherDisplay:10.37,2013-02-11 23:59:00,
2013-02-11 18:04:00,14.3,9.8,29.88,West,268,0.0,0.8,82,0.00,-RA,,0.00,0.0,WeatherDisplay:10.37,2013-02-12 00:04:00,
2013-02-11 18:09:00,13.9,9.4,29.88,West,268,0.0,0.3,82,0.00,-RA,,0.00,0.0,WeatherDisplay:10.37,2013-02-12 00:09:00,
2013-02-11 18:14:00,13.5,9.0,29.89,West,268,0.0,0.4,82,0.00,-RA,,0.00,0.0,WeatherDisplay:10.37,2013-02-12 00:14:00,
2013-02-11 18:19:00,13.0,8.5,29.89,West,273,2.3,2.3,82,0.00,-RA,,0.00,0.0,WeatherDisplay:10.37,2013-02-12 00:19:00,
2013-02-11 18:25:00,12.7,8.5,29.89,West,272,3.5,3.5,83,0.00,-RA,,0.00,0.0,WeatherDisplay:10.37,2013-02-12 00:25:00,
2013-02-11 18:30:00,12.4,8.5,29.89,West,273,3.5,3.5,84,0.00,-RA,,0.00,0.0,WeatherDisplay:10.37,2013-02-12 00:30:00,
2013-02-11 18:35:00,12.2,8.3,29.89,West,273,0.0,0.0,84,0.00,-RA,,0.00,0.0,WeatherDisplay:10.37,2013-02-12 00:35:00,
2013-02-11 18:40:00,12.0,8.1,29.89,West,273,4.6,4.6,84,0.00,-RA,,0.00,0.0,WeatherDisplay:10.37,2013-02-12 00:40:00,
2013-02-11 18:45:00,11.8,7.9,29.89,West,274,0.0,0.0,84,0.00,-RA,,0.00,0.0,WeatherDisplay:10.37,2013-02-12 00:45:00,
2013-02-11 18:50:00,11.7,7.8,29.89,West,273,0.0,0.0,84,0.00,-RA,,0.00,0.0,WeatherDisplay:10.37,2013-02-12 00:50:00,
2013-02-11 18:55:00,11.4,7.8,29.89,West,273,0.0,0.0,85,0.00,-RA,,0.00,0.0,WeatherDisplay:10.37,2013-02-12 00:55:00,
2013-02-11 19:00:00,11.3,7.4,29.89,West,274,0.0,0.0,84,0.00,-RA,,0.00,0.0,WeatherDisplay:10.37,2013-02-12 01:00:00,
2013-02-11 19:05:00,11.0,7.1,29.90,West,274,0.0,0.0,84,0.00,-RA,,0.00,0.0,WeatherDisplay:10.37,2013-02-12 01:05:00,
2013-02-11 19:10:00,10.6,6.7,29.89,West,273,0.0,0.0,84,0.00,-RA,,0.00,0.0,WeatherDisplay:10.37,2013-02-12 01:10:00,
2013-02-11 19:15:00,10.3,6.2,29.90,West,273,0.0,0.0,83,0.00,-RA,,0.00,0.0,WeatherDisplay:10.37,2013-02-12 01:15:00,
2013-02-11 19:20:00,9.9,5.8,29.89,West,274,0.0,0.0,83,0.00,-RA,,0.00,0.0,WeatherDisplay:10.37,2013-02-12 01:20:00,
2013-02-11 19:25:00,9.5,5.4,29.89,West,274,0.0,0.0,83,0.00,-RA,,0.00,0.0,WeatherDisplay:10.37,2013-02-12 01:25:00,
2013-02-11 19:30:00,9.1,5.0,29.90,West,274,0.0,0.0,83,0.00,-RA,,0.00,0.0,WeatherDisplay:10.37,2013-02-12 01:30:00,
2013-02-11 19:35:00,8.8,4.4,29.90,West,273,0.0,0.0,82,0.00,-RA,,0.00,0.0,WeatherDisplay:10.37,2013-02-12 01:35:00,
2013-02-11 19:40:00,8.4,4.0,29.90,West,274,0.0,0.0,82,0.00,-RA,,0.00,0.0,WeatherDisplay:10.37,2013-02-12 01:40:00,
2013-02-11 19:45:00,8.0,3.6,29.90,West,274,0.0,0.0,82,0.00,-RA,,0.00,0.0,WeatherDisplay:10.37,2013-02-12 01:45:00,
2013-02-11 19:50:00,7.7,3.4,29.90,West,273,0.0,0.0,82,0.00,-RA,,0.00,0.0,WeatherDisplay:10.37,2013-02-12 01:50:00,
2013-02-11 19:55:00,7.3,3.0,29.90,West,274,0.0,0.0,82,0.00,-RA,,0.00,0.0,WeatherDisplay:10.37,2013-02-12 01:55:00,
2013-02-11 20:00:00,7.0,2.7,29.90,West,274,0.0,0.0,82,0.00,-RA,,0.00,0.0,WeatherDisplay:10.37,2013-02-12 02:00:00,
2013-02-11 20:05:00,6.6,2.3,29.90,West,273,0.0,0.0,82,0.00,-RA,,0.00,0.0,WeatherDisplay:10.37,2013-02-12 02:05:00,
2013-02-11 20:10:00,6.4,2.0,29.90,West,273,0.0,0.0,82,0.00,-RA,,0.00,0.0,WeatherDisplay:10.37,2013-02-12 02:10:00,
2013-02-11 20:15:00,5.9,1.6,29.90,West,274,0.0,0.0,82,0.00,-RA,,0.00,0.0,WeatherDisplay:10.37,2013-02-12 02:15:00,
2013-02-11 20:20:00,5.6,1.3,29.90,West,273,0.0,0.0,82,0.00,-RA,,0.00,0.0,WeatherDisplay:10.37,2013-02-12 02:20:00,
2013-02-11 20:25:00,5.3,1.0,29.90,West,274,0.0,0.0,82,0.00,-RA,,0.00,0.0,WeatherDisplay:10.37,2013-02-12 02:25:00,
2013-02-11 20:30:00,5.0,0.7,29.90,West,273,0.0,0.0,82,0.00,-RA,,0.00,0.0,WeatherDisplay:10.37,2013-02-12 02:30:00,
2013-02-11 20:35:00,4.7,0.4,29.90,West,274,0.0,0.0,82,0.00,-RA,,0.00,0.0,WeatherDisplay:10.37,2013-02-12 02:35:00,
2013-02-11 20:40:00,4.4,0.1,29.90,West,274,0.0,0.0,82,0.00,-RA,,0.00,0.0,WeatherDisplay:10.37,2013-02-12 02:40:00,
2013-02-11 20:45:00,4.2,-0.1,29.90,West,274,0.0,0.0,82,0.00,-RA,,0.00,0.0,WeatherDisplay:10.37,2013-02-12 02:45:00,
2013-02-11 20:50:00,3.8,-0.5,29.90,West,274,0.0,0.0,82,0.00,-RA,,0.00,0.0,WeatherDisplay:10.37,2013-02-12 02:50:00,
2013-02-11 20:55:00,3.6,-0.7,29.90,West,274,0.0,0.0,82,0.00,-RA,,0.00,0.0,WeatherDisplay:10.37,2013-02-12 02:55:00,
2013-02-11 21:00:00,3.3,-1.0,29.89,West,273,0.0,0.0,82,0.00,-RA,,0.00,0.0,WeatherDisplay:10.37,2013-02-12 03:00:00,
2013-02-11 21:05:00,3.1,-1.2,29.90,West,273,0.0,0.0,82,0.00,-RA,,0.00,0.0,WeatherDisplay:10.37,2013-02-12 03:05:00,
2013-02-11 21:10:00,2.8,-1.7,29.89,West,274,0.0,0.0,81,0.00,-RA,,0.00,0.0,WeatherDisplay:10.37,2013-02-12 03:10:00,
2013-02-11 21:15:00,2.4,-2.1,29.90,West,273,0.0,0.0,81,0.00,-RA,,0.00,0.0,WeatherDisplay:10.37,2013-02-12 03:15:00,
2013-02-11 21:20:00,2.0,-2.5,29.89,West,274,0.0,0.0,81,0.00,-RA,,0.00,0.0,WeatherDisplay:10.37,2013-02-12 03:20:00,
2013-02-11 21:25:00,1.7,-2.8,29.90,West,274,0.0,0.0,81,0.00,-RA,,0.00,0.0,WeatherDisplay:10.37,2013-02-12 03:25:00,
2013-02-11 21:30:00,1.3,-3.2,29.90,West,274,0.0,0.0,81,0.00,-RA,,0.00,0.0,WeatherDisplay:10.37,2013-02-12 03:30:00,
2013-02-11 21:35:00,0.7,-4.3,29.90,West,274,0.0,0.0,79,0.00,-RA,,0.00,0.0,WeatherDisplay:10.37,2013-02-12 03:35:00,
2013-02-11 21:40:00,0.1,-5.1,29.89,West,274,0.0,0.0,78,0.00,-RA,,0.00,0.0,WeatherDisplay:10.37,2013-02-12 03:40:00,
2013-02-11 21:45:00,-0.6,-5.8,29.89,West,273,0.0,0.0,78,0.00,-RA,,0.00,0.0,WeatherDisplay:10.37,2013-02-12 03:45:00,
2013-02-11 21:50:00,-1.0,-6.2,29.89,West,274,0.0,0.0,78,0.00,-RA,,0.00,0.0,WeatherDisplay:10.37,2013-02-12 03:50:00,
2013-02-11 21:55:00,-1.5,-6.7,29.89,West,274,0.0,0.0,78,0.00,-RA,,0.00,0.0,WeatherDisplay:10.37,2013-02-12 03:55:00,
2013-02-11 22:00:00,-1.9,-7.1,29.89,West,274,0.0,0.0,78,0.00,-RA,,0.00,0.0,WeatherDisplay:10.37,2013-02-12 04:00:00,
2013-02-11 22:05:00,-2.3,-7.7,29.89,West,273,0.0,0.0,77,0.00,-RA,,0.00,0.0,WeatherDisplay:10.37,2013-02-12 04:05:00,
2013-02-11 22:10:00,-2.6,-8.0,29.89,West,273,0.0,0.0,77,0.00,-RA,,0.00,0.0,WeatherDisplay:10.37,2013-02-12 04:10:00,
2013-02-11 22:15:00,-2.9,-8.1,29.89,West,274,0.0,0.0,78,0.00,-RA,,0.00,0.0,WeatherDisplay:10.37,2013-02-12 04:15:00,
2013-02-11 22:20:00,-3.2,-8.4,29.89,West,273,0.0,0.0,78,0.00,-RA,,0.00,0.0,WeatherDisplay:10.37,2013-02-12 04:20:00,
2013-02-11 22:25:00,-3.4,-8.5,29.89,West,274,0.0,0.0,78,0.00,-RA,,0.00,0.0,WeatherDisplay:10.37,2013-02-12 04:25:00,
2013-02-11 22:30:00,-3.7,-8.8,29.89,West,273,0.0,0.0,78,0.00,-RA,,0.00,0.0,WeatherDisplay:10.37,2013-02-12 04:30:00,
2013-02-11 22:35:00,-4.0,-9.1,29.89,West,273,0.0,0.0,78,0.00,-RA,,0.00,0.0,WeatherDisplay:10.37,2013-02-12 04:35:00,
2013-02-11 22:40:00,-4.2,-9.1,29.89,West,273,0.0,0.0,79,0.00,-RA,,0.00,0.0,WeatherDisplay:10.37,2013-02-12 04:40:00,
2013-02-11 22:45:00,-4.3,-9.2,29.89,West,274,0.0,0.0,79,0.00,-RA,,0.00,0.0,WeatherDisplay:10.37,2013-02-12 04:45:00,
2013-02-11 22:50:00,-4.4,-9.3,29.88,West,273,0.0,0.0,79,0.00,-RA,,0.00,0.0,WeatherDisplay:10.37,2013-02-12 04:50:00,
2013-02-11 22:55:00,-4.4,-9.0,29.88,West,274,0.0,0.0,80,0.00,-RA,,0.00,0.0,WeatherDisplay:10.37,2013-02-12 04:55:00,
2013-02-11 23:00:00,-4.3,-8.7,29.88,West,273,0.0,0.0,81,0.00,-RA,,0.00,0.0,WeatherDisplay:10.37,2013-02-12 05:00:00,
2013-02-11 23:05:00,-3.9,-7.8,29.88,West,273,0.0,0.0,83,0.00,-RA,,0.00,0.0,WeatherDisplay:10.37,2013-02-12 05:05:00,
2013-02-11 23:10:00,-3.5,-7.1,29.88,West,274,0.0,0.0,84,0.00,-RA,,0.00,0.0,WeatherDisplay:10.37,2013-02-12 05:10:00,
2013-02-11 23:15:00,-2.8,-6.2,29.88,West,274,0.0,0.0,85,0.00,-RA,,0.00,0.0,WeatherDisplay:10.37,2013-02-12 05:15:00,
2013-02-11 23:20:00,-2.2,-5.4,29.88,West,273,0.0,0.0,86,0.00,-RA,,0.00,0.0,WeatherDisplay:10.37,2013-02-12 05:20:00,
2013-02-11 23:25:00,-1.5,-4.7,29.88,West,274,0.0,0.0,86,0.00,-RA,,0.00,0.0,WeatherDisplay:10.37,2013-02-12 05:25:00,
2013-02-11 23:30:00,-0.8,-3.7,29.88,West,274,0.0,0.0,87,0.00,-RA,,0.00,0.0,WeatherDisplay:10.37,2013-02-12 05:30:00,
2013-02-11 23:35:00,-0.1,-3.0,29.88,West,274,0.0,0.0,87,0.00,-RA,,0.00,0.0,WeatherDisplay:10.37,2013-02-12 05:35:00,
2013-02-11 23:40:00,0.5,-2.2,29.88,West,274,0.0,0.0,88,0.00,-RA,,0.00,0.0,WeatherDisplay:10.37,2013-02-12 05:40:00,
2013-02-11 23:45:00,1.1,-1.6,29.88,West,274,0.0,0.0,88,0.00,-RA,,0.00,0.0,WeatherDisplay:10.37,2013-02-12 05:45:00,
2013-02-11 23:50:00,1.7,-1.0,29.88,West,274,0.0,0.0,88,0.00,-RA,,0.00,0.0,WeatherDisplay:10.37,2013-02-12 05:50:00,
2013-02-11 23:55:00,2.3,-0.4,29.87,West,274,0.0,0.0,88,0.00,-RA,,0.00,0.0,WeatherDisplay:10.37,2013-02-12 05:55:00,